LEHC

Huesca/Pirineos Airport

Airport
ICAO code
LEHC
IATA Code
HSK
Summary
ICAO Region
EUR
ICAO Territory
Location

, Aragon

Serving
Huesca
Elevation
1768 ft
Coordinates
42° 4' 51" N , 0° 19' 24" W
Metar
Observation
LEHC 071330Z 00000KT 8000 OVC006 08/07 Q1013
Station
HUESCA-PIRINEOS
Date/Time
2022-12-07 13:30:00
Wind direction
Wind speed
00 kts
Lowest cloud amount
overcast
Temperature
8°C
Dew point
7°C
Humidity
93%
QNH
1013 hPa
Weather condition
n/a

Airport map

Aerial View

SKYbrary Partners:

Safety knowledge contributed by: